• Join FlightAware (Why Join?)
  • Login
  • US Flag 
12:45PM EDT


 

Airport Tracker/Info


-or-


 

Live Flight TrackerFlight Track Log ✈ N742AX ✈ 11-Apr-2013 ✈ KMIA - MKJP / KIN

Flight Track Log - Related Links

Times and Time Zones

All times are in EDT time to prevent confusion due to time zone crossing. See the N742AX flight status page for this flight to view local times or setup timezone preferences in your user account.

Time Position Orientation Groundspeed Altitude Reporting Facility
EDT Latitude Longitude Course Direction KTS MPH feet Rate Location/Type
04:48PM 25.7890 -80.2770 106° East 152 175 900  Level FlightAware
04:48PM 25.7790 -80.2540 116° Southeast 181 208 1,700 1,620 Climbing FlightAware
04:49PM 25.7680 -80.2290 116° Southeast 212 244 2,400 1,920 Climbing FlightAware
04:49PM 25.7560 -80.2010 115° Southeast 226 260 3,500 1,920 Climbing FlightAware
04:49PM 25.7440 -80.1710 114° Southeast 255 293 4,200 1,920 Climbing FlightAware
04:50PM 25.7350 -80.1560 124° Southeast 258 297 4,800 2,760 Climbing FlightAware
04:50PM 25.7180 -80.1460 152° Southeast 256 295 5,600 2,640 Climbing FlightAware
04:50PM 25.6830 -80.1430 176° South 259 298 6,800 1,500 Climbing FlightAware
04:51PM 25.6530 -80.1420 178° South 252 290 7,000 360 Climbing FlightAware
04:51PM 25.6500 -80.1420 180° South 251 289 7,000  Level FlightAware
04:52PM 25.6090 -80.1400 177° South 255 293 7,000 60 Level FlightAware
04:52PM 25.5820 -80.1380 176° South 255 293 7,100 1,320 Climbing FlightAware
04:52PM 25.5510 -80.1260 161° South 278 320 8,000 2,520 Climbing FlightAware
04:53PM 25.5200 -80.1080 152° Southeast 281 323 9,200 2,280 Climbing FlightAware
04:53PM 25.4730 -80.0810 153° Southeast 293 337 10,700 1,740 Climbing FlightAware
04:54PM 25.4260 -80.0550 153° Southeast 337 388 11,400 1,800 Climbing FlightAware
04:55PM 25.3490 -80.0250 161° South 361 415 13,300 1,440 Climbing FlightAware
04:56PM 25.2690 -79.9930 160° South 360 414 14,000 420 Climbing FlightAware
04:56PM 25.2150 -79.9720 161° South 360 414 14,000  Level FlightAware
04:57PM 25.1620 -79.9510 160° South 360 414 14,000 4,440 Level FlightAware
04:58PM 25.0353 -79.9139 160° South 395 455 20,100 4,620 Climbing Miami Center
04:59PM 24.9233 -79.8719 161° South 415 478 21,900 1,500 Climbing Miami Center
05:00PM 24.8300 -79.8378 162° South 433 498 23,200 1,500 Climbing Miami Center
05:01PM 24.7014 -79.7889 161° South 443 510 24,900 1,560 Climbing Miami Center
05:02PM 24.5747 -79.7425 162° South 454 522 26,400 1,440 Climbing Miami Center
05:03PM 24.4483 -79.6986 162° South 473 544 27,800 1,320 Climbing Miami Center
05:04PM 24.3133 -79.6497 162° South 487 560 29,100 1,320 Climbing Miami Center
05:05PM 24.1806 -79.5944 159° South 501 577 30,500 1,620 Climbing Miami Center
05:06PM 24.0458 -79.5439 161° South 511 588 32,400 1,860 Climbing Miami Center
05:08PM 23.8762 -79.4638 154° Southeast  Level Estimated
05:15PM 23.2037 -79.0328 156° South  Level FlightAware Approximate
05:16PM 23.1025 -78.9837 156° South  Level FlightAware Approximate
05:17PM 23.0013 -78.9346 156° South  Level FlightAware Approximate
05:18PM 22.9001 -78.8856 156° South  Level FlightAware Approximate
05:19PM 22.7988 -78.8366 156° South  Level FlightAware Approximate
05:20PM 22.6975 -78.7877 156° South  Level FlightAware Approximate
05:21PM 22.5963 -78.7389 156° South  Level FlightAware Approximate
05:22PM 22.4950 -78.6902 156° South  Level FlightAware Approximate
05:23PM 22.3937 -78.6415 156° South  Level FlightAware Approximate
05:24PM 22.2924 -78.5929 156° South  Level FlightAware Approximate
05:25PM 22.1910 -78.5444 156° South  Level FlightAware Approximate
05:26PM 22.0897 -78.4960 156° South  Level FlightAware Approximate
05:27PM 21.9883 -78.4476 156° South  Level FlightAware Approximate
05:28PM 21.8869 -78.3993 156° South  Level FlightAware Approximate
05:29PM 21.7855 -78.3510 156° South  Level FlightAware Approximate
05:30PM 21.6844 -78.3022 156° South  Level FlightAware Approximate
05:31PM 21.5832 -78.2535 156° South  Level FlightAware Approximate
05:32PM 21.4820 -78.2048 156° South  Level FlightAware Approximate
05:33PM 21.3809 -78.1561 156° South  Level FlightAware Approximate
05:34PM 21.2797 -78.1076 156° South  Level FlightAware Approximate
05:35PM 21.1785 -78.0591 156° South  Level FlightAware Approximate
05:36PM 21.0772 -78.0107 156° South  Level FlightAware Approximate
05:37PM 20.9760 -77.9623 156° South  Level FlightAware Approximate
05:38PM 20.8748 -77.9140 156° South  Level FlightAware Approximate
05:39PM 20.7735 -77.8658 156° South  Level FlightAware Approximate
05:40PM 20.6722 -77.8176 156° South  Level FlightAware Approximate
05:41PM 20.5709 -77.7695 156° South  Level FlightAware Approximate
05:42PM 20.4696 -77.7215 156° South  Level FlightAware Approximate
05:43PM 20.3683 -77.6735 156° South  Level FlightAware Approximate
05:44PM 20.2661 -77.6282 164° South  Level FlightAware Approximate
05:45PM 20.1594 -77.5962 164° South  Level FlightAware Approximate
05:46PM 20.0552 -77.5564 158° South  Level FlightAware Approximate
05:47PM 19.9527 -77.5116 158° South  Level FlightAware Approximate
05:48PM 19.8502 -77.4668 158° South  Level FlightAware Approximate
05:49PM 19.7431 -77.4366 163° South  Level FlightAware Approximate
05:50PM 19.6392 -77.3956 159° South  Level FlightAware Approximate
05:51PM 19.5355 -77.3542 159° South  Level FlightAware Approximate
05:52PM 19.4297 -77.3199 167° South  Level FlightAware Approximate
05:53PM 19.3251 -77.2814 160° South  Level FlightAware Approximate
05:54PM 19.2209 -77.2413 160° South  Level FlightAware Approximate
05:55PM 19.1157 -77.2043 162° South  Level FlightAware Approximate
05:56PM 19.0103 -77.1680 162° South  Level FlightAware Approximate
05:57PM 18.9049 -77.1317 162° South  Level FlightAware Approximate
05:58PM 18.7995 -77.0955 162° South  Level FlightAware Approximate
05:59PM 18.6940 -77.0594 162° South  Level FlightAware Approximate
06:00PM 18.5910 -77.0164 157° South  Level FlightAware Approximate
06:01PM 18.4879 -76.9737 162° South  Level FlightAware Approximate
06:02PM 18.3823 -76.9385 162° South  Level FlightAware Approximate
06:03PM 18.2773 -76.9009 159° South  Level FlightAware Approximate
06:04PM 18.1737 -76.8595 159° South  Level FlightAware Approximate
06:05PM 18.0711 -76.8211 136° Southeast  Level FlightAware Approximate
06:06PM 17.9661 -76.7864 159° South  Level FlightAware Approximate
06:07PM 17.9357 -76.7875 North  Level Estimated
06:08PM 17.9357 -76.7875 North  Level Estimated
06:09PM 17.9357 -76.7875 North  Level Estimated
06:10PM 17.9357 -76.7875 North  Level Estimated
06:11PM 17.9357 -76.7875 North  Level Estimated
06:12PM 17.9357 -76.7875 North  Level Estimated
06:13PM 17.9357 -76.7875 North  Level Estimated
06:14PM 17.9357 -76.7875 North  Level Estimated
06:15PM 17.9357 -76.7875 North  Level Estimated
06:16PM 17.9357 -76.7875 North  Level Estimated
06:17PM 17.9357 -76.7875 North  Level Estimated
06:18PM 17.9357 -76.7875 North  Level Estimated
06:19PM 17.9357 -76.7875 North  Level Estimated
06:20PM 17.9357 -76.7875 North  Level Estimated